Time;durP1;ratioP1;P1;durP2;ratioP2;P2;SDS_P1;SDS_P2;PMS_P1;PMS_P2;Temp;Humidity;BMP_temperature;BMP_pressure;BME280_temperature;BME280_humidity;BME280_pressure;Samples;Min_cycle;Max_cycle;Signal;HPM_P1;HPM_P2
2023/06/25 00:00:23;;;;;;;5.40;4.75;;;;;;;21.03;54.69;99536.37;7276692;39;21289;31
2023/06/25 00:05:56;;;;;;;4.97;4.17;;;;;;;21.06;55.75;99531.25;7254624;40;21318;31
2023/06/25 00:11:29;;;;;;;5.07;4.53;;;;;;;20.97;54.84;99527.16;7194853;40;21228;31
2023/06/25 00:16:47;;;;;;;6.17;4.37;;;;;;;20.94;55.43;99524.00;7196772;40;21240;31
2023/06/25 00:22:21;;;;;;;5.00;4.30;;;;;;;20.86;56.20;99516.94;7200591;40;20488;31
2023/06/25 00:27:38;;;;;;;4.80;4.30;;;;;;;20.77;55.22;99517.44;7200155;40;20243;31
2023/06/25 00:32:56;;;;;;;6.50;4.50;;;;;;;20.54;56.66;99512.56;7275974;40;20313;31
2023/06/25 00:38:30;;;;;;;4.85;4.25;;;;;;;20.35;56.97;99503.47;7262825;39;21268;31
2023/06/25 00:43:51;;;;;;;5.10;4.10;;;;;;;20.30;56.94;99503.28;7306445;39;21148;31
2023/06/25 00:49:20;;;;;;;5.10;4.17;;;;;;;20.35;56.56;99497.16;7298041;39;21288;31
2023/06/25 00:54:54;;;;;;;5.30;4.20;;;;;;;20.33;57.20;99494.62;7316780;39;21255;31
2023/06/25 01:00:28;;;;;;;5.00;4.43;;;;;;;20.28;58.01;99497.16;7298964;39;21260;31
2023/06/25 01:06:02;;;;;;;5.07;4.47;;;;;;;20.25;57.31;99492.13;7210730;40;21281;31
2023/06/25 01:16:40;;;;;;;4.87;4.37;;;;;;;20.29;56.63;99481.56;7204043;40;20296;31
2023/06/25 01:27:22;;;;;;;5.27;4.30;;;;;;;20.36;56.87;99461.31;7241206;40;21261;31
2023/06/25 01:32:41;;;;;;;5.07;4.33;;;;;;;20.49;55.12;99461.19;7274246;40;21282;31
2023/06/25 01:37:58;;;;;;;5.20;4.30;;;;;;;20.54;55.75;99468.75;7254769;40;20323;31
2023/06/25 01:43:31;;;;;;;4.50;3.85;;;;;;;20.34;56.63;99460.72;7277900;40;20373;31
2023/06/25 01:48:48;;;;;;;5.10;4.40;;;;;;;20.21;56.53;99458.03;7258091;40;21423;31
2023/06/25 01:54:05;;;;;;;6.03;5.12;;;;;;;20.21;56.40;99453.41;7297547;39;21211;31
2023/06/25 01:59:41;;;;;;;8.00;4.70;;;;;;;20.01;57.91;99457.38;7300420;39;20243;31
2023/06/25 02:05:00;;;;;;;5.90;4.30;;;;;;;19.85;57.73;99469.66;7305935;39;21269;31
2023/06/25 02:10:17;;;;;;;5.35;4.30;;;;;;;19.88;57.92;99458.25;7280580;40;20256;31
2023/06/25 02:15:51;;;;;;;6.13;4.17;;;;;;;19.86;58.86;99459.56;7290141;40;21258;31
2023/06/25 02:21:27;;;;;;;6.03;4.50;;;;;;;19.75;58.09;99456.44;7274829;40;20369;31
2023/06/25 02:26:46;;;;;;;5.03;4.43;;;;;;;19.52;59.25;99452.59;7257122;40;21233;31
2023/06/25 02:32:19;;;;;;;4.80;4.30;;;;;;;19.41;59.16;99448.59;7276790;40;20252;31
2023/06/25 02:37:38;;;;;;;6.15;5.00;;;;;;;19.49;58.95;99444.81;7281312;39;21295;31
2023/06/25 02:43:10;;;;;;;4.90;4.40;;;;;;;19.43;60.77;99448.41;7260686;40;20334;31
2023/06/25 02:48:42;;;;;;;6.00;4.70;;;;;;;19.42;60.44;99449.44;7248404;40;20249;31
2023/06/25 02:54:03;;;;;;;5.60;4.80;;;;;;;19.49;59.21;99439.34;7214404;40;21338;31
2023/06/25 02:59:37;;;;;;;5.45;4.70;;;;;;;19.64;58.69;99439.91;7243893;40;21182;31
2023/06/25 03:05:10;;;;;;;6.33;4.90;;;;;;;19.49;59.55;99442.91;7246596;39;21329;31
2023/06/25 03:10:43;;;;;;;5.33;4.70;;;;;;;19.46;58.51;99439.78;7197036;40;21297;31
2023/06/25 03:16:19;;;;;;;6.10;4.50;;;;;;;19.37;59.14;99448.22;7218529;40;21249;31
2023/06/25 03:21:50;;;;;;;5.00;4.50;;;;;;;19.03;61.33;99440.34;7167626;40;21302;31
2023/06/25 03:27:21;;;;;;;5.10;4.60;;;;;;;18.86;60.21;99437.25;7139028;40;21237;31
2023/06/25 03:32:44;;;;;;;5.30;4.20;;;;;;;18.90;60.66;99438.50;7127844;40;21378;31
2023/06/25 03:38:19;;;;;;;7.60;4.50;;;;;;;18.94;61.47;99430.72;7116995;40;20271;31
2023/06/25 03:48:59;;;;;;;4.60;4.20;;;;;;;19.12;59.92;99417.19;7211815;40;21067;31
2023/06/25 03:59:39;;;;;;;7.53;4.30;;;;;;;19.12;59.59;99419.09;7257550;39;20419;31
2023/06/25 04:05:11;;;;;;;4.50;4.10;;;;;;;19.24;59.31;99431.03;7260446;40;20253;31
2023/06/25 04:10:31;;;;;;;4.67;4.00;;;;;;;19.27;60.00;99422.37;7260635;40;20471;31
2023/06/25 04:16:06;;;;;;;5.20;4.10;;;;;;;19.21;60.06;99420.53;7247371;40;21308;31
2023/06/25 04:21:37;;;;;;;7.07;4.33;;;;;;;19.23;60.36;99429.34;7265538;40;20315;31
2023/06/25 04:26:58;;;;;;;6.70;4.80;;;;;;;19.17;60.79;99427.50;7312291;39;20283;31
2023/06/25 04:37:35;;;;;;;4.87;4.40;;;;;;;19.29;60.28;99431.22;7313312;39;20282;31
2023/06/25 04:42:53;;;;;;;5.53;4.60;;;;;;;19.34;58.96;99420.47;7288012;39;21310;31
2023/06/25 04:48:25;;;;;;;4.77;4.10;;;;;;;19.52;58.92;99433.47;7269470;40;20276;31
2023/06/25 04:54:02;;;;;;;4.90;4.40;;;;;;;19.59;59.67;99423.31;7255021;40;21273;31
2023/06/25 04:59:19;;;;;;;5.00;4.50;;;;;;;19.80;58.93;99429.28;7275379;40;20249;31
2023/06/25 05:04:54;;;;;;;4.87;4.00;;;;;;;20.12;57.72;99434.75;7303796;39;21109;31
2023/06/25 05:10:27;;;;;;;6.10;4.50;;;;;;;20.27;57.94;99433.34;7068389;40;20424;31
2023/06/25 05:15:47;;;;;;;8.00;4.80;;;;;;;20.48;57.74;99434.91;7232711;40;21366;31
2023/06/25 05:26:24;;;;;;;4.85;4.40;;;;;;;20.97;57.44;99444.09;7238443;40;20399;31
2023/06/25 05:31:56;;;;;;;6.05;4.80;;;;;;;21.12;56.37;99448.16;7222646;40;21275;31
2023/06/25 05:42:34;;;;;;;7.00;4.50;;;;;;;21.48;55.19;99451.94;7295915;39;20413;31
2023/06/25 05:47:54;;;;;;;5.60;4.70;;;;;;;21.56;54.83;99441.50;7221189;40;21345;31
2023/06/25 05:53:14;;;;;;;5.80;5.20;;;;;;;21.73;54.91;99451.81;7221346;40;21327;31
2023/06/25 06:03:52;;;;;;;6.28;4.80;;;;;;;22.01;54.54;99447.41;7303899;39;20258;31
2023/06/25 06:14:29;;;;;;;6.93;4.80;;;;;;;22.36;54.26;99441.16;7294053;40;20261;31
2023/06/25 06:20:03;;;;;;;6.20;4.55;;;;;;;22.54;53.11;99443.81;7255927;40;20383;31
2023/06/25 06:25:34;;;;;;;5.13;4.63;;;;;;;22.79;52.74;99438.09;7242068;40;21382;31
2023/06/25 06:30:55;;;;;;;6.35;4.50;;;;;;;23.00;52.73;99439.38;7254325;40;20281;31
2023/06/25 06:36:31;;;;;;;4.90;4.30;;;;;;;23.15;52.05;99432.31;7250874;40;20623;31
2023/06/25 06:47:10;;;;;;;5.18;4.68;;;;;;;23.65;51.36;99440.00;7207902;40;20400;31
2023/06/25 06:52:43;;;;;;;5.80;4.50;;;;;;;23.80;50.76;99440.28;7253091;39;21265;31
2023/06/25 06:58:15;;;;;;;5.45;4.10;;;;;;;23.98;49.11;99448.34;7265227;40;21337;31
2023/06/25 07:03:31;;;;;;;4.90;4.10;;;;;;;24.25;48.33;99443.06;7235893;40;21484;31
2023/06/25 07:09:04;;;;;;;4.15;3.75;;;;;;;24.37;46.34;99442.97;7279245;39;20418;31
2023/06/25 07:14:21;;;;;;;5.28;4.45;;;;;;;24.61;47.61;99439.81;7217224;40;20274;31
2023/06/25 07:19:53;;;;;;;4.40;4.00;;;;;;;24.80;45.81;99431.25;7248917;40;21235;31
2023/06/25 07:25:26;;;;;;;6.05;4.35;;;;;;;24.92;46.72;99434.78;7226497;40;21201;31
2023/06/25 07:30:43;;;;;;;5.20;4.30;;;;;;;25.17;45.23;99439.81;7253690;40;21312;31
2023/06/25 07:36:01;;;;;;;5.10;4.30;;;;;;;25.38;44.83;99437.06;7241483;40;21454;31
2023/06/25 07:41:35;;;;;;;6.15;4.75;;;;;;;25.50;44.61;99439.69;7227681;40;21228;31
2023/06/25 07:47:08;;;;;;;4.65;4.10;;;;;;;25.69;45.05;99440.22;7207762;40;21297;31
2023/06/25 07:52:39;;;;;;;7.18;4.50;;;;;;;25.85;43.17;99425.47;7237285;40;21226;31
2023/06/25 07:58:15;;;;;;;8.95;4.60;;;;;;;26.00;43.40;99426.47;7241202;40;20261;31
2023/06/25 08:03:33;;;;;;;5.25;4.20;;;;;;;26.22;43.42;99431.13;7274088;39;21239;31
2023/06/25 08:08:51;;;;;;;5.30;4.30;;;;;;;26.44;42.56;99423.59;7241906;40;21234;31
2023/06/25 08:14:23;;;;;;;5.27;4.70;;;;;;;26.60;42.36;99419.00;7234138;40;21227;31
2023/06/25 08:19:41;;;;;;;4.68;4.28;;;;;;;26.74;42.27;99421.03;7278547;39;21286;31
2023/06/25 08:25:17;;;;;;;6.50;4.80;;;;;;;26.86;41.67;99416.16;7276946;39;21360;31
2023/06/25 08:30:50;;;;;;;6.07;4.65;;;;;;;27.07;40.54;99424.59;7227037;40;21782;31
2023/06/25 08:36:11;;;;;;;4.72;4.18;;;;;;;27.27;40.69;99433.00;7236603;40;21421;31
2023/06/25 08:41:45;;;;;;;7.30;4.90;;;;;;;27.48;40.06;99422.88;7183401;40;21171;31
2023/06/25 08:47:21;;;;;;;5.05;4.25;;;;;;;27.73;39.92;99432.09;7201591;40;21249;31
2023/06/25 08:52:54;;;;;;;5.45;4.57;;;;;;;27.89;39.52;99418.28;7213162;40;21694;31
2023/06/25 08:58:14;;;;;;;5.50;4.17;;;;;;;27.88;39.09;99427.69;7228882;40;21279;31
2023/06/25 09:03:50;;;;;;;6.10;4.30;;;;;;;27.88;37.83;99417.44;7231401;40;21247;31
2023/06/25 09:09:23;;;;;;;4.75;4.23;;;;;;;28.12;37.51;99410.31;7206010;40;21182;31
2023/06/25 09:14:58;;;;;;;4.70;4.30;;;;;;;28.38;37.16;99393.69;7211413;40;20257;31
2023/06/25 09:20:34;;;;;;;4.82;4.35;;;;;;;28.59;37.10;99407.25;7208912;40;21225;31
2023/06/25 09:26:11;;;;;;;5.07;4.57;;;;;;;28.77;36.45;99394.78;7207237;40;21015;31
2023/06/25 09:36:50;;;;;;;5.10;4.60;;;;;;;29.04;34.54;99377.78;7286710;39;20276;31
2023/06/25 09:47:26;;;;;;;6.20;4.50;;;;;;;29.06;31.35;99381.94;7322863;39;20260;31
2023/06/25 09:53:00;;;;;;;5.30;4.20;;;;;;;29.17;33.14;99382.72;7294748;39;21359;31
2023/06/25 10:03:39;;;;;;;5.50;4.62;;;;;;;29.54;30.89;99374.78;7294427;39;20271;31
2023/06/25 10:09:12;;;;;;;4.40;4.00;;;;;;;29.75;30.26;99369.13;7296727;39;21231;31
2023/06/25 10:14:51;;;;;;;4.50;4.00;;;;;;;29.66;29.85;99362.53;7279694;39;21229;31
2023/06/25 10:20:22;;;;;;;4.20;3.80;;;;;;;29.78;29.73;99369.37;7275432;40;21444;31
2023/06/25 10:25:55;;;;;;;4.37;3.97;;;;;;;29.84;30.42;99357.09;7245462;40;21212;31
2023/06/25 10:31:30;;;;;;;5.20;4.30;;;;;;;29.97;29.85;99359.25;7191588;40;21312;31
2023/06/25 10:37:05;;;;;;;4.10;3.70;;;;;;;30.00;28.79;99343.97;7194291;40;20271;31
2023/06/25 10:47:42;;;;;;;4.12;3.72;;;;;;;30.26;27.96;99337.06;7190584;40;20263;31
2023/06/25 10:58:18;;;;;;;5.62;3.55;;;;;;;30.33;27.96;99322.81;7249441;40;20631;31
2023/06/25 11:03:49;;;;;;;4.22;3.63;;;;;;;30.44;28.07;99316.03;7290078;39;21471;31
2023/06/25 11:14:10;;;;;;;4.84;3.96;;;;;;;30.71;28.17;99307.16;7235135;40;20277;31
2023/06/25 11:24:48;;;;;;;3.55;3.25;;;;;;;30.86;26.90;99306.94;7291740;39;20265;31
2023/06/25 11:35:22;;;;;;;4.15;3.75;;;;;;;31.16;26.99;99292.66;7337652;39;20391;31
2023/06/25 11:40:55;;;;;;;4.50;3.70;;;;;;;31.22;26.84;99288.69;7319619;39;21276;31
2023/06/25 11:46:15;;;;;;;4.00;3.55;;;;;;;31.20;27.23;99290.94;7307063;39;21276;31
2023/06/25 11:51:32;;;;;;;4.50;3.80;;;;;;;31.38;27.12;99280.94;7240796;40;21321;31
2023/06/25 11:57:06;;;;;;;4.03;3.62;;;;;;;31.49;27.25;99276.06;7308686;39;21401;31
2023/06/25 12:02:41;;;;;;;4.45;3.70;;;;;;;31.61;27.58;99277.28;7241777;40;20331;31
2023/06/25 12:13:18;;;;;;;4.25;3.85;;;;;;;31.77;26.66;99264.75;7235048;40;20288;31
2023/06/25 12:18:50;;;;;;;4.35;3.70;;;;;;;31.88;26.25;99251.47;7258152;40;21208;31
2023/06/25 12:24:22;;;;;;;4.35;3.80;;;;;;;31.98;25.78;99248.53;7246271;40;21219;31
2023/06/25 12:29:55;;;;;;;4.35;3.80;;;;;;;31.98;26.82;99242.94;7271538;39;21270;31
2023/06/25 12:35:28;;;;;;;3.60;3.30;;;;;;;31.97;25.13;99230.13;7009523;40;20254;31
2023/06/25 12:41:02;;;;;;;5.45;3.90;;;;;;;31.98;25.62;99234.56;7257167;39;21523;31
2023/06/25 12:46:35;;;;;;;4.43;4.03;;;;;;;32.11;27.14;99231.03;7234100;40;20363;31
2023/06/25 12:51:52;;;;;;;4.40;4.00;;;;;;;32.25;26.68;99227.44;7215110;40;21303;31
2023/06/25 12:57:10;;;;;;;4.43;3.97;;;;;;;32.35;25.19;99219.66;7240297;40;21416;31
2023/06/25 13:02:43;;;;;;;4.40;4.00;;;;;;;32.38;26.23;99215.44;7289743;39;21336;31
2023/06/25 13:08:15;;;;;;;4.10;3.70;;;;;;;32.47;25.65;99221.97;7286770;39;21359;31
2023/06/25 13:13:35;;;;;;;4.07;3.65;;;;;;;32.41;24.87;99231.56;7253024;40;21336;31
2023/06/25 13:24:12;;;;;;;5.05;4.55;;;;;;;32.48;26.43;99212.44;7266328;40;20277;31
2023/06/25 13:34:52;;;;;;;5.10;4.28;;;;;;;32.59;25.35;99197.16;7256482;40;20370;31
2023/06/25 13:45:25;;;;;;;5.07;3.80;;;;;;;32.57;24.57;99188.25;7245895;40;20386;31
2023/06/25 13:50:42;;;;;;;4.68;4.28;;;;;;;32.48;26.18;99190.09;7258937;40;20257;31
2023/06/25 13:56:00;;;;;;;5.70;4.10;;;;;;;32.67;25.53;99176.06;7306844;39;21278;31
2023/06/25 14:01:34;;;;;;;5.12;4.60;;;;;;;32.70;25.31;99176.25;7322634;39;20331;31
2023/06/25 14:07:06;;;;;;;4.55;4.15;;;;;;;32.63;24.88;99161.91;7276136;40;21314;31
2023/06/25 14:12:23;;;;;;;5.12;4.28;;;;;;;32.45;26.09;99158.06;7292342;39;21239;31
2023/06/25 14:17:55;;;;;;;4.73;3.80;;;;;;;32.62;25.85;99163.03;7281167;40;21304;31
2023/06/25 14:23:13;;;;;;;5.10;4.30;;;;;;;32.71;26.58;99165.94;7295291;39;21234;31
2023/06/25 14:28:28;;;;;;;4.94;4.46;;;;;;;32.61;25.71;99151.00;7264189;40;20238;31
2023/06/25 14:33:59;;;;;;;4.18;3.78;;;;;;;32.78;26.74;99138.41;7277160;40;20257;31
2023/06/25 14:39:20;;;;;;;4.27;3.87;;;;;;;32.95;25.51;99138.59;7235925;40;21282;31
2023/06/25 14:44:54;;;;;;;6.03;4.50;;;;;;;32.80;25.44;99134.16;7259161;39;21309;31
2023/06/25 14:50:22;;;;;;;5.03;4.53;;;;;;;32.80;26.30;99120.19;7295289;39;20384;31
2023/06/25 14:55:57;;;;;;;5.15;4.62;;;;;;;32.83;26.36;99118.72;7277159;39;21382;31
2023/06/25 15:01:18;;;;;;;4.37;3.97;;;;;;;32.93;27.31;99118.50;7234345;40;20285;31
2023/06/25 15:06:51;;;;;;;5.60;4.65;;;;;;;33.07;26.55;99111.75;7229780;40;21348;31
2023/06/25 15:17:30;;;;;;;4.70;4.25;;;;;;;33.13;26.15;99094.84;7224973;40;20277;31
2023/06/25 15:23:03;;;;;;;6.30;4.40;;;;;;;33.13;25.40;99094.84;7195955;40;21287;31
2023/06/25 15:28:25;;;;;;;4.32;3.92;;;;;;;32.98;25.41;99094.06;7223115;40;21362;31
2023/06/25 15:33:56;;;;;;;5.20;4.65;;;;;;;33.08;25.89;99088.25;7255860;40;21324;31
2023/06/25 15:39:29;;;;;;;6.03;4.57;;;;;;;32.96;25.89;99074.00;7240391;40;20242;31
2023/06/25 15:45:04;;;;;;;5.30;4.00;;;;;;;32.90;24.90;99060.50;7214493;40;21121;31
2023/06/25 15:55:40;;;;;;;5.60;4.00;;;;;;;32.95;26.15;99049.19;7237271;40;20261;31
2023/06/25 16:00:58;;;;;;;4.67;4.27;;;;;;;32.91;25.38;99053.78;7223918;40;21303;31
2023/06/25 16:06:17;;;;;;;4.38;3.98;;;;;;;32.97;24.85;99052.47;7249468;40;20522;31
2023/06/25 16:11:52;;;;;;;4.95;4.30;;;;;;;32.89;25.53;99040.09;7297049;39;21270;31
2023/06/25 16:17:09;;;;;;;4.47;4.07;;;;;;;32.93;25.79;99043.91;7271248;40;21354;31
2023/06/25 16:22:39;;;;;;;4.78;4.38;;;;;;;32.93;24.72;99045.88;7298229;39;21162;31
2023/06/25 16:28:13;;;;;;;4.77;4.30;;;;;;;32.96;25.87;99040.47;7226288;40;21302;31
2023/06/25 16:33:48;;;;;;;4.70;4.30;;;;;;;32.93;25.99;99040.28;7207514;40;20285;31
2023/06/25 16:39:08;;;;;;;4.75;4.25;;;;;;;32.96;25.93;99048.03;7228229;40;20383;31
2023/06/25 16:44:44;;;;;;;5.20;4.40;;;;;;;32.92;25.68;99033.03;7210934;40;21316;31
2023/06/25 16:50:04;;;;;;;5.00;4.60;;;;;;;32.74;24.77;99032.09;7145660;40;21371;31
2023/06/25 17:00:45;;;;;;;6.18;4.37;;;;;;;32.31;26.10;99028.88;7254519;40;20465;31
2023/06/25 17:06:20;;;;;;;5.25;4.75;;;;;;;32.17;25.95;99034.47;7292203;39;20279;31
2023/06/25 17:11:40;;;;;;;5.00;4.30;;;;;;;31.87;26.33;99028.69;7248945;40;21298;31
2023/06/25 17:17:13;;;;;;;4.70;4.30;;;;;;;31.74;26.68;99030.34;7236956;40;20382;31
2023/06/25 17:22:30;;;;;;;5.40;4.80;;;;;;;31.56;27.13;99032.09;7261418;40;21316;31
2023/06/25 17:28:06;;;;;;;5.30;4.80;;;;;;;31.48;27.38;99032.78;7268692;40;20456;31
2023/06/25 17:33:39;;;;;;;5.05;4.22;;;;;;;31.41;27.31;99024.00;7270266;40;21206;31
2023/06/25 17:39:14;;;;;;;5.20;4.60;;;;;;;31.26;27.40;99032.63;7247712;40;21296;31
2023/06/25 17:44:31;;;;;;;5.50;4.10;;;;;;;31.30;27.92;99034.50;7269598;39;21273;31
2023/06/25 17:55:12;;;;;;;4.80;4.30;;;;;;;31.04;29.10;99026.88;7306863;39;20381;31
2023/06/25 18:05:32;;;;;;;5.60;4.37;;;;;;;30.96;29.96;99031.16;7307970;39;20264;31
2023/06/25 18:11:06;;;;;;;6.55;4.65;;;;;;;30.87;30.08;99044.94;7337614;39;21289;31
2023/06/25 18:16:26;;;;;;;5.50;4.32;;;;;;;30.77;30.71;99036.75;7283118;39;21290;31
2023/06/25 18:21:47;;;;;;;4.68;4.28;;;;;;;30.64;31.14;99042.25;7215124;40;20304;31
2023/06/25 18:32:23;;;;;;;5.53;4.85;;;;;;;30.38;32.72;99039.81;7190908;40;20264;31
2023/06/25 18:37:40;;;;;;;4.80;4.40;;;;;;;30.24;34.94;99038.06;7268026;39;21249;31
2023/06/25 18:43:11;;;;;;;5.20;4.60;;;;;;;30.09;33.76;99030.78;7251486;40;21446;31
2023/06/25 18:48:47;;;;;;;6.10;4.68;;;;;;;29.90;35.50;99027.13;7278584;39;20299;31
2023/06/25 18:54:16;;;;;;;8.10;5.90;;;;;;;29.70;36.92;99032.91;7244098;40;21277;31
2023/06/25 18:59:51;;;;;;;5.85;5.05;;;;;;;29.53;37.77;99031.41;7256491;40;21317;31
2023/06/25 19:10:28;;;;;;;6.65;5.10;;;;;;;29.23;37.70;99037.22;7181376;40;20293;31
2023/06/25 19:16:00;;;;;;;5.65;4.75;;;;;;;29.05;37.71;99035.19;7171929;40;21287;31
2023/06/25 19:21:20;;;;;;;5.65;4.60;;;;;;;28.79;38.04;99026.22;7217494;40;20245;31
2023/06/25 19:26:54;;;;;;;6.28;5.15;;;;;;;28.47;39.05;99029.50;7214270;40;21411;31
2023/06/25 19:32:11;;;;;;;6.43;4.85;;;;;;;28.23;38.71;99034.06;7203122;40;21735;31
2023/06/25 19:37:29;;;;;;;6.08;4.98;;;;;;;28.03;38.92;99043.31;7026314;40;20234;31
2023/06/25 19:43:03;;;;;;;5.25;4.75;;;;;;;27.75;40.08;99039.25;7240325;40;21839;31
2023/06/25 19:48:33;;;;;;;5.27;4.67;;;;;;;27.55;39.58;99044.88;7224652;40;21714;31
2023/06/25 19:53:53;;;;;;;5.10;4.55;;;;;;;27.38;40.16;99049.03;7192109;40;20278;31
2023/06/25 19:59:30;;;;;;;5.67;5.07;;;;;;;27.13;40.71;99041.56;7203671;40;21048;31
2023/06/25 20:09:50;;;;;;;5.15;4.65;;;;;;;26.85;40.72;99057.59;7216382;40;20311;31
2023/06/25 20:15:25;;;;;;;5.45;4.53;;;;;;;26.64;40.66;99055.91;7223292;40;21318;31
2023/06/25 20:21:00;;;;;;;5.90;5.30;;;;;;;26.49;41.02;99055.87;7244267;40;20281;31
2023/06/25 20:26:03;;;;;;;6.10;5.20;;;;;;;26.38;40.93;99056.97;7234261;40;21217;31
2023/06/25 20:31:36;;;;;;;5.18;4.68;;;;;;;26.29;40.93;99055.81;7302252;39;20750;31
2023/06/25 20:37:08;;;;;;;5.93;4.98;;;;;;;26.15;40.71;99065.72;7295797;40;21257;31
2023/06/25 20:42:25;;;;;;;5.30;4.75;;;;;;;26.01;41.40;99063.47;7266585;40;20350;31
2023/06/25 20:47:58;;;;;;;6.87;5.05;;;;;;;25.83;41.17;99057.56;7259172;40;21294;31
2023/06/25 20:53:33;;;;;;;5.97;5.25;;;;;;;25.75;42.21;99069.13;7264539;39;20280;31
2023/06/25 21:04:13;;;;;;;5.10;4.60;;;;;;;25.44;42.01;99057.03;7266799;39;20288;31
2023/06/25 21:09:34;;;;;;;5.10;4.57;;;;;;;25.36;42.86;99065.81;7226245;40;20273;31
2023/06/25 21:14:55;;;;;;;5.40;4.60;;;;;;;25.08;43.56;99065.06;7252583;40;20277;31
2023/06/25 21:25:33;;;;;;;5.28;4.78;;;;;;;24.82;43.58;99074.19;7321848;39;20358;31
2023/06/25 21:31:09;;;;;;;5.70;5.00;;;;;;;24.68;43.68;99071.03;7295778;39;21286;31
2023/06/25 21:36:43;;;;;;;5.85;4.43;;;;;;;24.59;44.38;99071.75;7260515;40;20278;31
2023/06/25 21:47:21;;;;;;;5.22;4.72;;;;;;;24.27;44.93;99065.34;7300747;39;20276;31
2023/06/25 21:58:00;;;;;;;6.00;5.25;;;;;;;23.86;46.85;99070.34;7290420;39;20262;31
2023/06/25 22:08:37;;;;;;;6.05;4.80;;;;;;;23.63;46.68;99073.31;7278865;39;20262;31
2023/06/25 22:13:58;;;;;;;4.95;4.45;;;;;;;23.66;46.60;99081.06;7295082;39;21297;31
2023/06/25 22:24:35;;;;;;;5.32;4.78;;;;;;;23.49;46.63;99077.53;7275107;40;20266;31
2023/06/25 22:35:12;;;;;;;5.53;4.77;;;;;;;23.25;47.05;99065.88;7246542;40;20255;31
2023/06/25 22:40:48;;;;;;;6.20;4.70;;;;;;;23.09;47.64;99067.53;7252881;40;21452;31
2023/06/25 22:46:21;;;;;;;6.55;5.15;;;;;;;23.09;47.87;99062.03;7228591;40;20235;31
2023/06/25 22:51:38;;;;;;;5.40;4.80;;;;;;;23.06;47.49;99061.72;7240020;40;21323;31
2023/06/25 22:57:10;;;;;;;4.80;4.30;;;;;;;22.95;47.81;99059.91;7246681;40;20447;31
2023/06/25 23:02:42;;;;;;;5.35;4.85;;;;;;;22.95;48.09;99068.94;7234967;40;20738;31
2023/06/25 23:08:02;;;;;;;6.00;5.10;;;;;;;22.92;47.47;99056.53;7242700;40;21279;31
2023/06/25 23:18:47;;;;;;;5.67;4.97;;;;;;;22.60;49.31;99049.09;7247731;40;20369;31
2023/06/25 23:29:02;;;;;;;5.95;5.20;;;;;;;22.32;49.37;99055.44;7284076;39;20298;31
2023/06/25 23:39:37;;;;;;;5.47;4.93;;;;;;;22.38;49.23;99037.97;7317275;39;20361;31
2023/06/25 23:44:53;;;;;;;5.43;4.85;;;;;;;22.39;49.21;99047.87;7339266;39;20255;31
2023/06/25 23:50:10;;;;;;;6.97;4.93;;;;;;;22.37;49.76;99048.13;7333220;39;20370;31
2023/06/25 23:55:43;;;;;;;6.20;5.10;;;;;;;22.24;49.84;99039.38;7336727;39;21162;31
